Cross Village, Michigan
Current Conditions -  °F | °C
As of 3:54 PM on Friday 28 Nov 2014 (Local Time) from KPLN Reporting Station
Overcast Overcast  
Wind Chill: 16°   Ceiling: 11000
Heat Index: 23°   Visibility: 10mi
Dew Point: 17°   Wind: 6mph
Humidity: 78%   Direction: 160°SSE
Pressure: 30.09"   Gusts: NA
Location:  45.64°N, 85.04°W
Report Text: KPLN 282054Z AUTO 16005KT 10SM SCT070 OVC110 M05/M08 A3009 RMK AO2 SLP202 60000 T10501083 56022
Loading
Personal Weather Stations






























Interactive Weather Map New forecast layout! Learn more

10-Day Weather Forecast

Advertisements
Track Severe Weather on mobile